createdAt,value
2023-03-11T00:00:39.439Z,64.60
2023-03-11T00:03:06.078Z,64.50
2023-03-11T00:05:32.820Z,64.50
2023-03-11T00:07:59.522Z,64.50
2023-03-11T00:10:27.396Z,64.80
2023-03-11T00:12:55.051Z,64.80
2023-03-11T00:15:21.499Z,64.20
2023-03-11T00:17:47.974Z,64.50
2023-03-11T00:20:14.455Z,64.50
2023-03-11T00:22:40.933Z,64.50
2023-03-11T00:25:07.411Z,64.90
2023-03-11T00:27:33.886Z,64.70
2023-03-11T00:30:00.369Z,64.90
2023-03-11T00:32:26.872Z,64.30
2023-03-11T00:34:53.351Z,64.40
2023-03-11T00:37:19.826Z,64.50
2023-03-11T00:39:46.307Z,64.80
2023-03-11T00:42:12.791Z,64.70
2023-03-11T00:44:39.291Z,64.70
2023-03-11T00:47:05.764Z,64.80
2023-03-11T00:49:32.239Z,64.40
2023-03-11T00:51:58.728Z,64.00
2023-03-11T00:54:25.224Z,64.00
2023-03-11T00:56:51.694Z,64.20
2023-03-11T00:59:18.153Z,64.00
2023-03-11T01:01:44.684Z,64.20
2023-03-11T01:04:11.235Z,64.00
2023-03-11T01:06:45.163Z,64.30
2023-03-11T01:09:12.207Z,64.40
2023-03-11T01:11:38.681Z,64.10
2023-03-11T01:14:05.155Z,64.20
2023-03-11T01:16:31.643Z,64.10
2023-03-11T01:18:58.119Z,64.30
2023-03-11T01:21:24.600Z,64.40
2023-03-11T01:23:51.084Z,64.40
2023-03-11T01:26:17.608Z,63.80
2023-03-11T01:28:44.076Z,64.50
2023-03-11T01:31:10.575Z,64.50
2023-03-11T01:33:37.067Z,64.20
2023-03-11T01:36:03.641Z,63.90
2023-03-11T01:38:30.158Z,64.00
2023-03-11T01:40:56.647Z,63.80
2023-03-11T01:43:23.152Z,64.00
2023-03-11T01:45:49.668Z,63.90
2023-03-11T01:48:16.134Z,64.00
2023-03-11T01:50:42.617Z,64.00
2023-03-11T01:53:09.104Z,63.90
2023-03-11T01:55:35.585Z,63.20
2023-03-11T01:58:02.060Z,63.30
2023-03-11T02:00:28.541Z,63.80
2023-03-11T02:02:55.070Z,63.70
2023-03-11T02:05:21.542Z,63.70
2023-03-11T02:07:48.006Z,63.60
2023-03-11T02:10:14.469Z,63.80
2023-03-11T02:12:40.950Z,63.50
2023-03-11T02:15:07.415Z,63.60
2023-03-11T02:17:33.890Z,63.60
2023-03-11T02:20:00.399Z,63.60
2023-03-11T02:22:26.863Z,63.30
2023-03-11T02:24:53.335Z,63.50
2023-03-11T02:27:19.825Z,63.70
2023-03-11T02:29:46.304Z,63.60
2023-03-11T02:32:12.807Z,63.70
2023-03-11T02:34:39.343Z,63.40
2023-03-11T02:37:05.829Z,63.60
2023-03-11T02:39:33.578Z,63.30
2023-03-11T02:42:00.021Z,63.30
2023-03-11T02:44:26.514Z,63.30
2023-03-11T02:46:53.059Z,63.70
2023-03-11T02:49:19.591Z,63.60
2023-03-11T02:51:46.137Z,63.70
2023-03-11T02:54:12.615Z,63.40
2023-03-11T02:56:39.095Z,63.10
2023-03-11T02:59:05.598Z,63.20
2023-03-11T03:01:32.075Z,62.90
2023-03-11T03:03:58.549Z,63.10
2023-03-11T03:06:25.037Z,62.90
2023-03-11T03:08:51.525Z,63.00
2023-03-11T03:11:18.003Z,62.90
2023-03-11T03:13:47.695Z,62.80
2023-03-11T03:16:14.193Z,63.00
2023-03-11T03:18:40.705Z,63.10
2023-03-11T03:21:07.190Z,63.20
2023-03-11T03:23:33.674Z,62.90
2023-03-11T03:26:00.135Z,63.30
2023-03-11T03:28:26.598Z,63.30
2023-03-11T03:30:53.069Z,63.30
2023-03-11T03:33:19.557Z,63.00
2023-03-11T03:35:46.066Z,63.40
2023-03-11T03:38:12.559Z,63.30
2023-03-11T03:40:39.029Z,63.20
2023-03-11T03:43:05.510Z,63.00
2023-03-11T03:45:31.993Z,63.00
2023-03-11T03:47:58.477Z,62.80
2023-03-11T03:50:24.950Z,62.80
2023-03-11T03:52:51.469Z,62.70
2023-03-11T03:55:17.953Z,62.90
2023-03-11T03:57:44.420Z,63.00
2023-03-11T04:00:10.911Z,63.30
2023-03-11T04:02:37.461Z,63.10
2023-03-11T04:05:03.983Z,62.90
2023-03-11T04:07:30.446Z,63.00
2023-03-11T04:09:56.927Z,62.80
2023-03-11T04:12:23.396Z,63.00
2023-03-11T04:14:49.902Z,62.70
2023-03-11T04:17:16.355Z,62.70
2023-03-11T04:19:42.825Z,63.00
2023-03-11T04:22:09.303Z,62.60
2023-03-11T04:24:35.781Z,62.70
2023-03-11T04:27:02.261Z,62.90
2023-03-11T04:29:28.909Z,63.00
2023-03-11T04:31:55.412Z,62.90
2023-03-11T04:34:21.932Z,63.00
2023-03-11T04:36:48.415Z,62.90
2023-03-11T04:39:14.963Z,62.90
2023-03-11T04:41:41.442Z,62.70
2023-03-11T04:44:08.003Z,62.80
2023-03-11T04:46:34.599Z,62.50
2023-03-11T04:49:01.118Z,62.90
2023-03-11T04:51:27.599Z,62.80
2023-03-11T04:53:54.391Z,62.70
2023-03-11T04:56:20.863Z,62.60
2023-03-11T04:58:47.329Z,62.80
2023-03-11T05:01:13.851Z,62.70
2023-03-11T05:03:40.348Z,62.60
2023-03-11T05:06:06.842Z,62.40
2023-03-11T05:08:33.317Z,62.20
2023-03-11T05:10:59.802Z,62.50
2023-03-11T05:13:26.283Z,62.10
2023-03-11T05:15:52.814Z,62.40
2023-03-11T05:18:19.283Z,62.30
2023-03-11T05:20:46.032Z,62.40
2023-03-11T05:23:12.762Z,62.10
2023-03-11T05:25:39.255Z,62.10
2023-03-11T05:28:05.719Z,62.20
2023-03-11T05:30:32.209Z,62.30
2023-03-11T05:32:58.685Z,62.50
2023-03-11T05:35:25.222Z,62.50
2023-03-11T05:37:51.803Z,62.50
2023-03-11T05:40:18.382Z,62.50
2023-03-11T05:42:44.859Z,62.50
2023-03-11T05:45:11.348Z,62.50
2023-03-11T05:47:37.801Z,62.30
2023-03-11T05:50:04.292Z,62.40
2023-03-11T05:52:30.775Z,62.40
2023-03-11T05:54:57.258Z,62.20
2023-03-11T05:57:23.729Z,62.10
2023-03-11T05:59:50.206Z,62.30
2023-03-11T06:02:16.687Z,62.20
2023-03-11T06:04:43.264Z,62.10
2023-03-11T06:07:09.780Z,62.20
2023-03-11T06:09:36.263Z,62.20
2023-03-11T06:12:02.731Z,62.20
2023-03-11T06:14:29.208Z,62.40
2023-03-11T06:16:55.688Z,62.30
2023-03-11T06:19:22.184Z,62.40
2023-03-11T06:21:48.663Z,62.20
2023-03-11T06:24:15.143Z,62.30
2023-03-11T06:26:41.632Z,62.30
2023-03-11T06:29:08.112Z,62.00
2023-03-11T06:31:34.630Z,62.00
2023-03-11T06:34:01.294Z,61.90
2023-03-11T06:36:27.786Z,62.00
2023-03-11T06:38:54.255Z,62.00
2023-03-11T06:41:20.788Z,62.30
2023-03-11T06:43:47.252Z,62.20
2023-03-11T06:46:13.839Z,61.90
2023-03-11T06:48:40.337Z,62.30
2023-03-11T06:51:06.843Z,62.10
2023-03-11T06:53:33.326Z,62.20
2023-03-11T06:55:59.815Z,62.00
2023-03-11T06:58:26.297Z,61.90
2023-03-11T07:00:52.807Z,61.80
2023-03-11T07:03:19.285Z,61.80
2023-03-11T07:05:45.784Z,61.80
2023-03-11T07:08:12.234Z,61.80
2023-03-11T07:10:38.731Z,61.80
2023-03-11T07:13:05.205Z,61.90
2023-03-11T07:15:31.727Z,61.50
2023-03-11T07:17:58.220Z,62.00
2023-03-11T07:20:24.700Z,61.70
2023-03-11T07:22:51.150Z,62.00
2023-03-11T07:25:17.657Z,61.90
2023-03-11T07:27:44.137Z,61.60
2023-03-11T07:30:10.649Z,61.80
2023-03-11T07:32:37.168Z,61.70
2023-03-11T07:35:03.656Z,62.40
2023-03-11T07:37:30.141Z,61.60
2023-03-11T07:39:56.611Z,61.60
2023-03-11T07:42:23.070Z,61.70
2023-03-11T07:44:49.533Z,61.60
2023-03-11T07:47:16.191Z,61.20
2023-03-11T07:49:42.661Z,61.40
2023-03-11T07:52:09.137Z,61.60
2023-03-11T07:54:35.641Z,61.40
2023-03-11T07:57:02.105Z,61.60
2023-03-11T07:59:28.554Z,61.70
2023-03-11T08:01:55.044Z,61.50
2023-03-11T08:04:21.552Z,61.40
2023-03-11T08:06:48.055Z,61.40
2023-03-11T08:09:14.515Z,61.30
2023-03-11T08:11:40.998Z,61.10
2023-03-11T08:14:07.476Z,61.40
2023-03-11T08:16:33.960Z,61.30
2023-03-11T08:19:00.446Z,61.40
2023-03-11T08:21:26.940Z,60.70
2023-03-11T08:23:53.402Z,60.50
2023-03-11T08:26:19.890Z,60.70
2023-03-11T08:28:46.365Z,61.10
2023-03-11T08:31:12.835Z,60.30
2023-03-11T08:33:39.316Z,61.00
2023-03-11T08:36:06.157Z,61.10
2023-03-11T08:38:32.949Z,61.00
2023-03-11T08:40:59.455Z,60.90
2023-03-11T08:43:25.937Z,61.10
2023-03-11T08:45:52.477Z,60.60
2023-03-11T08:48:19.059Z,60.50
2023-03-11T08:50:54.023Z,61.20
2023-03-11T08:53:20.924Z,61.10
2023-03-11T08:55:47.429Z,61.00
2023-03-11T08:58:13.908Z,60.80
2023-03-11T09:00:40.396Z,60.30
2023-03-11T09:03:06.934Z,60.70
2023-03-11T09:05:33.466Z,60.20
2023-03-11T09:07:59.946Z,60.60
2023-03-11T09:10:26.572Z,59.70
2023-03-11T09:12:53.049Z,60.00
2023-03-11T09:15:19.519Z,60.70
2023-03-11T09:17:46.022Z,60.40
2023-03-11T09:20:17.994Z,60.20
2023-03-11T09:22:47.970Z,60.10
2023-03-11T09:25:14.441Z,59.60
2023-03-11T09:27:40.922Z,60.60
2023-03-11T09:30:07.407Z,59.70
2023-03-11T09:32:33.918Z,59.60
2023-03-11T09:35:00.376Z,59.90
2023-03-11T09:37:26.878Z,59.70
2023-03-11T09:39:53.377Z,60.20
2023-03-11T09:42:19.852Z,60.20
2023-03-11T09:44:46.328Z,59.70
2023-03-11T09:47:12.822Z,59.30
2023-03-11T09:49:41.973Z,60.00
2023-03-11T09:52:08.440Z,60.00
2023-03-11T09:54:34.938Z,60.00
2023-03-11T09:57:01.468Z,59.90
2023-03-11T09:59:27.919Z,61.00
2023-03-11T10:01:54.455Z,60.30
2023-03-11T10:04:20.956Z,60.00
2023-03-11T10:06:47.428Z,60.10
2023-03-11T10:09:13.897Z,59.10
2023-03-11T10:11:40.407Z,60.00
2023-03-11T10:14:06.906Z,60.00
2023-03-11T10:16:33.421Z,60.00
2023-03-11T10:18:59.922Z,60.20
2023-03-11T10:21:26.397Z,60.10
2023-03-11T10:23:52.856Z,60.40
2023-03-11T10:26:19.327Z,60.30
2023-03-11T10:28:45.784Z,60.50
2023-03-11T10:31:12.250Z,60.50
2023-03-11T10:33:38.715Z,60.30
2023-03-11T10:36:05.203Z,60.40
2023-03-11T10:38:36.180Z,60.50
2023-03-11T10:41:02.668Z,60.20
2023-03-11T10:43:29.134Z,60.60
2023-03-11T10:45:55.802Z,60.60
2023-03-11T10:48:22.320Z,58.60
2023-03-11T10:50:48.939Z,59.60
2023-03-11T10:53:15.425Z,60.20
2023-03-11T10:55:41.888Z,60.30
2023-03-11T10:58:08.360Z,60.30
2023-03-11T11:00:36.005Z,60.30
2023-03-11T11:03:02.488Z,59.90
2023-03-11T11:05:28.955Z,60.30
2023-03-11T11:07:55.426Z,60.30
2023-03-11T11:10:21.923Z,61.20
2023-03-11T11:12:54.067Z,60.70
2023-03-11T11:15:20.553Z,60.60
2023-03-11T11:17:47.019Z,60.60
2023-03-11T11:20:13.472Z,60.60
2023-03-11T11:22:39.952Z,60.70
2023-03-11T11:25:06.458Z,60.50
2023-03-11T11:27:33.019Z,59.80
2023-03-11T11:29:59.493Z,60.00
2023-03-11T11:32:26.032Z,60.50
2023-03-11T11:34:52.549Z,60.50
2023-03-11T11:37:19.023Z,60.40
2023-03-11T11:39:45.491Z,60.70
2023-03-11T11:42:11.980Z,60.70
2023-03-11T11:44:38.506Z,60.50
2023-03-11T11:47:06.442Z,60.00
2023-03-11T11:49:33.000Z,58.90
2023-03-11T11:51:59.472Z,60.00
2023-03-11T11:54:25.976Z,59.90
2023-03-11T11:56:52.459Z,60.20
2023-03-11T11:59:18.960Z,60.30
2023-03-11T12:01:45.384Z,60.70
2023-03-11T12:04:11.848Z,60.60
2023-03-11T12:06:38.328Z,60.40
2023-03-11T12:09:04.803Z,60.50
2023-03-11T12:11:31.280Z,60.40
2023-03-11T12:13:57.754Z,60.60
2023-03-11T12:16:24.217Z,60.40
2023-03-11T12:18:50.686Z,60.60
2023-03-11T12:21:17.169Z,60.00
2023-03-11T12:23:43.651Z,60.30
2023-03-11T12:26:10.120Z,60.30
2023-03-11T12:28:36.601Z,60.40
2023-03-11T12:31:03.077Z,60.10
2023-03-11T12:33:29.579Z,60.00
2023-03-11T12:35:56.141Z,59.50
2023-03-11T12:38:22.658Z,59.20
2023-03-11T12:40:49.136Z,60.20
2023-03-11T12:43:15.607Z,59.70
2023-03-11T12:45:42.084Z,59.60
2023-03-11T12:48:08.544Z,59.50
2023-03-11T12:50:35.002Z,59.80
2023-03-11T12:53:01.505Z,59.90
2023-03-11T12:55:27.991Z,59.10
2023-03-11T12:57:54.479Z,59.30
2023-03-11T13:00:20.968Z,59.00
2023-03-11T13:02:47.541Z,59.40
2023-03-11T13:05:14.071Z,59.60
2023-03-11T13:07:40.528Z,59.30
2023-03-11T13:10:06.996Z,59.70
2023-03-11T13:12:33.452Z,59.80
2023-03-11T13:15:02.385Z,59.10
2023-03-11T13:17:29.069Z,59.00
2023-03-11T13:19:55.522Z,59.10
2023-03-11T13:22:21.993Z,59.30
2023-03-11T13:24:48.459Z,59.50
2023-03-11T13:27:14.914Z,59.00
2023-03-11T13:29:41.378Z,58.90
2023-03-11T13:32:07.844Z,59.30
2023-03-11T13:34:34.329Z,59.00
2023-03-11T13:37:00.802Z,59.30
2023-03-11T13:39:27.276Z,59.50
2023-03-11T13:41:53.762Z,59.60
2023-03-11T13:44:20.270Z,59.40
2023-03-11T13:46:46.754Z,59.60
2023-03-11T13:49:13.233Z,59.50
2023-03-11T13:51:39.709Z,59.30
2023-03-11T13:54:06.188Z,59.10
2023-03-11T13:56:32.660Z,58.90
2023-03-11T13:58:59.135Z,58.80
2023-03-11T14:01:25.750Z,58.70
2023-03-11T14:03:52.295Z,58.70
2023-03-11T14:06:19.792Z,58.40
2023-03-11T14:08:46.444Z,58.80
2023-03-11T14:11:12.872Z,59.00
2023-03-11T14:13:39.334Z,58.70
2023-03-11T14:16:05.834Z,58.90
2023-03-11T14:18:32.320Z,59.10
2023-03-11T14:20:58.821Z,58.80
2023-03-11T14:23:25.310Z,59.00
2023-03-11T14:28:44.594Z,59.00
2023-03-11T14:31:11.523Z,58.90
2023-03-11T14:33:38.014Z,58.50
2023-03-11T14:36:04.524Z,57.70
2023-03-11T14:38:31.011Z,56.90
2023-03-11T14:40:57.497Z,58.10
2023-03-11T14:43:23.974Z,58.00
2023-03-11T14:45:50.456Z,58.20
2023-03-11T14:48:16.954Z,58.00
2023-03-11T14:50:43.432Z,57.80
2023-03-11T14:53:09.925Z,57.80
2023-03-11T14:55:36.449Z,57.60
2023-03-11T14:58:02.934Z,57.80
2023-03-11T15:00:29.453Z,56.90
2023-03-11T15:02:55.942Z,57.40
2023-03-11T15:05:22.465Z,56.40
2023-03-11T15:07:48.920Z,56.60
2023-03-11T15:10:15.397Z,57.20
2023-03-11T15:12:41.894Z,56.60
2023-03-11T15:15:08.366Z,56.40
2023-03-11T15:17:42.282Z,56.70
2023-03-11T15:20:10.590Z,56.60
2023-03-11T15:22:37.063Z,56.50
2023-03-11T15:25:03.546Z,56.30
2023-03-11T15:27:30.018Z,57.00
2023-03-11T15:29:56.491Z,56.50
2023-03-11T15:32:22.992Z,56.30
2023-03-11T15:34:49.473Z,56.10
2023-03-11T15:37:16.002Z,56.80
2023-03-11T15:39:42.502Z,56.30
2023-03-11T15:42:09.001Z,56.90
2023-03-11T15:44:35.475Z,56.80
2023-03-11T15:47:01.952Z,57.50
2023-03-11T15:49:28.434Z,56.50
2023-03-11T15:51:54.895Z,56.50
2023-03-11T15:54:21.361Z,56.80
2023-03-11T15:56:47.850Z,56.90
2023-03-11T15:59:14.336Z,57.40
2023-03-11T16:01:40.819Z,57.00
2023-03-11T16:04:07.391Z,57.10
2023-03-11T16:06:33.887Z,56.40
2023-03-11T16:09:00.350Z,57.00
2023-03-11T16:11:26.818Z,55.90
2023-03-11T16:13:53.298Z,56.30
2023-03-11T16:16:19.787Z,56.50
2023-03-11T16:18:46.309Z,56.80
2023-03-11T16:21:12.869Z,56.20
2023-03-11T16:23:51.119Z,56.80
2023-03-11T16:26:18.233Z,56.20
2023-03-11T16:28:44.722Z,56.30
2023-03-11T16:31:11.242Z,56.80
2023-03-11T16:33:37.741Z,56.90
2023-03-11T16:36:04.253Z,56.90
2023-03-11T16:38:30.759Z,56.80
2023-03-11T16:40:57.225Z,56.80
2023-03-11T16:43:23.707Z,57.00
2023-03-11T16:45:50.202Z,56.90
2023-03-11T16:48:16.660Z,56.90
2023-03-11T16:50:43.176Z,56.80
2023-03-11T16:53:09.650Z,56.80
2023-03-11T16:55:36.137Z,57.00
2023-03-11T16:58:02.602Z,57.20
2023-03-11T17:00:29.070Z,56.30
2023-03-11T17:02:55.551Z,56.70
2023-03-11T17:05:22.101Z,56.70
2023-03-11T17:07:48.631Z,57.10
2023-03-11T17:10:15.138Z,57.30
2023-03-11T17:12:41.626Z,56.70
2023-03-11T17:15:08.122Z,56.80
2023-03-11T17:17:34.601Z,56.80
2023-03-11T17:20:01.063Z,56.70
2023-03-11T17:22:27.561Z,57.00
2023-03-11T17:24:54.037Z,57.10
2023-03-11T17:27:20.532Z,55.90
2023-03-11T17:29:47.035Z,57.10
2023-03-11T17:32:16.451Z,57.30
2023-03-11T17:34:43.538Z,57.30
2023-03-11T17:37:10.022Z,57.20
2023-03-11T17:39:36.497Z,57.00
2023-03-11T17:42:03.017Z,57.20
2023-03-11T17:44:37.890Z,57.10
2023-03-11T17:47:11.301Z,56.80
2023-03-11T17:49:37.774Z,56.60
2023-03-11T17:52:04.298Z,57.20
2023-03-11T17:54:30.780Z,56.50
2023-03-11T17:56:57.254Z,56.40
2023-03-11T17:59:23.722Z,56.80
2023-03-11T18:01:50.258Z,56.80
2023-03-11T18:04:16.806Z,56.40
2023-03-11T18:06:43.312Z,56.80
2023-03-11T18:09:09.806Z,56.80
2023-03-11T18:11:36.293Z,56.10
2023-03-11T18:14:02.774Z,56.40
2023-03-11T18:16:29.244Z,57.20
2023-03-11T18:18:55.753Z,56.50
2023-03-11T18:21:22.225Z,56.80
2023-03-11T18:23:48.695Z,56.90
2023-03-11T18:26:15.197Z,56.80
2023-03-11T18:28:41.708Z,57.10
2023-03-11T18:31:08.193Z,57.00
2023-03-11T18:33:34.685Z,56.60
2023-03-11T18:36:01.266Z,56.20
2023-03-11T18:38:28.260Z,56.10
2023-03-11T18:40:54.719Z,57.20
2023-03-11T18:43:21.221Z,56.50
2023-03-11T18:45:47.736Z,56.90
2023-03-11T18:48:14.238Z,56.80
2023-03-11T18:50:40.730Z,55.90
2023-03-11T18:53:07.387Z,56.60
2023-03-11T18:55:33.903Z,56.30
2023-03-11T18:58:00.372Z,55.90
2023-03-11T19:00:26.866Z,56.70
2023-03-11T19:02:53.348Z,56.30
2023-03-11T19:05:19.876Z,56.80
2023-03-11T19:07:46.381Z,56.80
2023-03-11T19:10:12.850Z,56.50
2023-03-11T19:12:39.326Z,56.60
2023-03-11T19:15:05.826Z,56.40
2023-03-11T19:17:32.306Z,56.60
2023-03-11T19:19:58.793Z,56.50
2023-03-11T19:22:25.281Z,56.80
2023-03-11T19:24:51.757Z,56.60
2023-03-11T19:27:18.229Z,56.80
2023-03-11T19:29:44.707Z,56.20
2023-03-11T19:32:11.184Z,56.70
2023-03-11T19:34:37.665Z,56.80
2023-03-11T19:37:04.135Z,56.50
2023-03-11T19:39:30.640Z,56.60
2023-03-11T19:41:57.095Z,56.90
2023-03-11T19:44:23.626Z,56.60
2023-03-11T19:46:50.110Z,56.40
2023-03-11T19:49:16.652Z,56.80
2023-03-11T19:51:50.171Z,57.10
2023-03-11T19:54:17.121Z,56.70
2023-03-11T19:56:43.649Z,56.50
2023-03-11T19:59:10.152Z,56.80
2023-03-11T20:01:36.687Z,56.60
2023-03-11T20:04:03.296Z,56.80
2023-03-11T20:06:29.863Z,56.50
2023-03-11T20:08:56.342Z,57.00
2023-03-11T20:11:22.834Z,56.90
2023-03-11T20:13:49.330Z,57.30
2023-03-11T20:16:18.502Z,56.80
2023-03-11T20:18:45.307Z,56.70
2023-03-11T20:21:11.780Z,56.80
2023-03-11T20:23:38.355Z,57.00
2023-03-11T20:26:04.953Z,56.60
2023-03-11T20:28:31.438Z,56.80
2023-03-11T20:30:57.971Z,56.40
2023-03-11T20:33:24.468Z,56.90
2023-03-11T20:35:51.030Z,56.50
2023-03-11T20:38:17.613Z,56.70
2023-03-11T20:40:44.092Z,56.60
2023-03-11T20:43:10.659Z,56.60
2023-03-11T20:45:37.201Z,56.70
2023-03-11T20:48:03.718Z,56.80
2023-03-11T20:50:30.302Z,56.70
2023-03-11T20:52:56.806Z,56.60
2023-03-11T20:55:23.355Z,56.90
2023-03-11T20:57:49.895Z,56.90
2023-03-11T21:00:16.500Z,56.80
2023-03-11T21:02:43.266Z,56.60
2023-03-11T21:05:10.056Z,56.70
2023-03-11T21:07:36.737Z,56.70
2023-03-11T21:10:03.255Z,56.40
2023-03-11T21:12:31.310Z,56.80
2023-03-11T21:14:57.947Z,56.80
2023-03-11T21:17:24.483Z,57.50
2023-03-11T21:19:54.777Z,56.50
2023-03-11T21:22:21.333Z,56.60
2023-03-11T21:24:47.941Z,56.70
2023-03-11T21:27:14.545Z,56.70
2023-03-11T21:29:41.091Z,56.70
2023-03-11T21:32:07.698Z,56.80
2023-03-11T21:34:34.250Z,56.70
2023-03-11T21:37:00.838Z,56.50
2023-03-11T21:39:27.354Z,56.70
2023-03-11T21:41:53.981Z,56.60
2023-03-11T21:44:20.571Z,56.50
2023-03-11T21:46:47.192Z,56.60
2023-03-11T21:49:13.792Z,56.50
2023-03-11T21:51:40.252Z,56.70
2023-03-11T21:54:06.799Z,56.50
2023-03-11T21:56:33.439Z,56.70
2023-03-11T21:58:59.962Z,56.70
2023-03-11T22:01:26.641Z,56.70
2023-03-11T22:03:53.496Z,56.70
2023-03-11T22:06:20.171Z,56.70
2023-03-11T22:08:46.803Z,56.50
2023-03-11T22:11:13.475Z,56.60
2023-03-11T22:13:40.039Z,56.50
2023-03-11T22:16:06.790Z,56.40
2023-03-11T22:18:33.576Z,56.50
2023-03-11T22:21:00.171Z,56.50
2023-03-11T22:23:26.684Z,56.50
2023-03-11T22:25:53.162Z,56.50
2023-03-11T22:28:19.631Z,56.50
2023-03-11T22:30:46.107Z,56.70
2023-03-11T22:33:12.593Z,56.60
2023-03-11T22:35:39.128Z,56.50
2023-03-11T22:38:05.652Z,56.50
2023-03-11T22:40:32.130Z,56.60
2023-03-11T22:42:58.628Z,56.50
2023-03-11T22:45:25.109Z,56.50
2023-03-11T22:47:51.594Z,56.50
2023-03-11T22:50:18.082Z,56.50
2023-03-11T22:52:44.581Z,56.40
2023-03-11T22:55:11.294Z,56.50
2023-03-11T22:57:37.823Z,56.60
2023-03-11T23:00:04.316Z,56.50
2023-03-11T23:02:30.821Z,56.50
2023-03-11T23:04:57.284Z,56.50
2023-03-11T23:07:23.743Z,56.40
2023-03-11T23:09:50.222Z,56.50
2023-03-11T23:12:16.700Z,56.40
2023-03-11T23:14:45.260Z,56.30
2023-03-11T23:17:11.940Z,56.30
2023-03-11T23:19:38.496Z,56.30
2023-03-11T23:22:04.996Z,56.20
2023-03-11T23:24:31.464Z,56.30
2023-03-11T23:26:57.921Z,56.30
2023-03-11T23:29:24.399Z,56.30
2023-03-11T23:31:50.870Z,56.20
2023-03-11T23:34:17.355Z,56.20
2023-03-11T23:36:43.836Z,56.20
2023-03-11T23:39:10.309Z,56.20
2023-03-11T23:41:36.773Z,56.30
2023-03-11T23:44:03.256Z,56.90
2023-03-11T23:46:29.766Z,56.20
2023-03-11T23:48:56.317Z,56.20
2023-03-11T23:51:22.965Z,56.10
2023-03-11T23:53:49.443Z,56.10
2023-03-11T23:56:15.900Z,56.00
2023-03-11T23:58:42.393Z,56.00
